createdAt,value
2023-01-27T00:00:14.895Z,93.15
2023-01-27T00:01:14.432Z,93.25
2023-01-27T00:02:14.475Z,93.25
2023-01-27T00:03:14.469Z,93.15
2023-01-27T00:04:14.395Z,93.04
2023-01-27T00:05:14.395Z,93.04
2023-01-27T00:06:14.378Z,93.04
2023-01-27T00:07:14.381Z,93.04
2023-01-27T00:08:14.370Z,93.04
2023-01-27T00:09:14.352Z,93.15
2023-01-27T00:10:14.708Z,93.15
2023-01-27T00:11:14.355Z,93.25
2023-01-27T00:12:14.321Z,93.35
2023-01-27T00:13:14.321Z,93.35
2023-01-27T00:14:14.315Z,93.35
2023-01-27T00:15:14.281Z,93.35
2023-01-27T00:16:14.311Z,93.04
2023-01-27T00:17:14.302Z,92.94
2023-01-27T00:18:14.251Z,93.04
2023-01-27T00:19:14.271Z,93.04
2023-01-27T00:20:14.423Z,93.15
2023-01-27T00:21:14.220Z,93.15
2023-01-27T00:22:14.217Z,93.15
2023-01-27T00:23:14.211Z,93.15
2023-01-27T00:24:14.269Z,93.15
2023-01-27T00:25:14.196Z,93.04
2023-01-27T00:26:14.170Z,93.04
2023-01-27T00:27:14.181Z,93.15
2023-01-27T00:28:14.160Z,92.94
2023-01-27T00:29:14.141Z,92.73
2023-01-27T00:30:14.362Z,92.83
2023-01-27T00:31:14.228Z,92.73
2023-01-27T00:32:14.100Z,92.73
2023-01-27T00:33:14.112Z,92.73
2023-01-27T00:34:14.101Z,92.52
2023-01-27T00:35:14.100Z,92.21
2023-01-27T00:36:14.062Z,92.00
2023-01-27T00:37:14.072Z,92.00
2023-01-27T00:38:14.050Z,92.21
2023-01-27T00:39:14.041Z,92.31
2023-01-27T00:40:14.324Z,92.31
2023-01-27T00:41:14.044Z,92.41
2023-01-27T00:42:14.001Z,92.52
2023-01-27T00:43:14.002Z,92.52
2023-01-27T00:44:13.983Z,92.31
2023-01-27T00:45:13.980Z,92.21
2023-01-27T00:46:14.010Z,92.21
2023-01-27T00:47:13.963Z,92.31
2023-01-27T00:48:13.951Z,92.10
2023-01-27T00:49:13.952Z,92.00
2023-01-27T00:50:14.121Z,92.00
2023-01-27T00:51:13.949Z,91.89
2023-01-27T00:52:13.921Z,91.69
2023-01-27T00:53:13.892Z,91.69
2023-01-27T00:54:13.892Z,92.00
2023-01-27T00:55:13.880Z,91.89
2023-01-27T00:56:13.891Z,91.89
2023-01-27T00:57:13.864Z,91.69
2023-01-27T00:58:13.861Z,91.69
2023-01-27T00:59:13.867Z,91.89
2023-01-27T01:00:14.135Z,91.79
2023-01-27T01:01:13.823Z,91.69
2023-01-27T01:02:13.802Z,91.54
2023-01-27T01:03:13.812Z,91.58
2023-01-27T01:04:13.772Z,91.58
2023-01-27T01:05:13.799Z,91.47
2023-01-27T01:06:13.759Z,91.27
2023-01-27T01:07:13.752Z,91.37
2023-01-27T01:08:13.732Z,91.58
2023-01-27T01:09:13.722Z,91.58
2023-01-27T01:10:14.099Z,91.58
2023-01-27T01:11:13.711Z,91.58
2023-01-27T01:12:13.700Z,91.47
2023-01-27T01:13:13.683Z,91.58
2023-01-27T01:14:13.663Z,90.75
2023-01-27T01:15:13.700Z,90.43
2023-01-27T01:16:13.725Z,90.43
2023-01-27T01:17:13.655Z,90.53
2023-01-27T01:18:13.641Z,90.53
2023-01-27T01:19:13.640Z,90.64
2023-01-27T01:20:13.979Z,90.43
2023-01-27T01:21:13.634Z,90.43
2023-01-27T01:22:13.608Z,90.64
2023-01-27T01:23:13.589Z,90.75
2023-01-27T01:24:13.657Z,90.64
2023-01-27T01:25:13.592Z,90.75
2023-01-27T01:26:13.552Z,90.75
2023-01-27T01:27:13.549Z,90.75
2023-01-27T01:28:13.522Z,90.75
2023-01-27T01:29:13.543Z,90.53
2023-01-27T01:30:13.798Z,90.53
2023-01-27T01:31:13.519Z,90.64
2023-01-27T01:32:13.483Z,90.95
2023-01-27T01:33:13.483Z,90.85
2023-01-27T01:34:13.490Z,90.95
2023-01-27T01:35:13.470Z,91.16
2023-01-27T01:36:13.461Z,91.37
2023-01-27T01:37:13.445Z,91.22
2023-01-27T01:38:13.423Z,91.12
2023-01-27T01:39:13.453Z,90.91
2023-01-27T01:40:13.677Z,90.81
2023-01-27T01:41:13.400Z,90.70
2023-01-27T01:42:13.400Z,90.50
2023-01-27T01:43:13.382Z,90.39
2023-01-27T01:44:13.373Z,90.50
2023-01-27T01:45:13.395Z,90.70
2023-01-27T01:46:13.418Z,90.70
2023-01-27T01:47:13.333Z,90.81
2023-01-27T01:48:13.345Z,91.02
2023-01-27T01:49:13.324Z,90.70
2023-01-27T01:50:13.619Z,90.39
2023-01-27T01:51:13.293Z,89.97
2023-01-27T01:52:13.314Z,89.97
2023-01-27T01:53:13.287Z,90.08
2023-01-27T01:54:13.272Z,89.56
2023-01-27T01:55:13.663Z,89.34
2023-01-27T01:56:13.233Z,89.14
2023-01-27T01:57:13.247Z,89.45
2023-01-27T01:58:13.224Z,89.45
2023-01-27T01:59:13.226Z,89.34
2023-01-27T02:00:13.456Z,89.56
2023-01-27T02:01:13.222Z,89.34
2023-01-27T02:02:13.201Z,89.24
2023-01-27T02:03:13.183Z,89.24
2023-01-27T02:04:13.172Z,89.03
2023-01-27T02:05:13.401Z,89.45
2023-01-27T02:06:13.134Z,89.41
2023-01-27T02:07:13.144Z,89.31
2023-01-27T02:08:13.134Z,89.24
2023-01-27T02:09:13.104Z,89.03
2023-01-27T02:10:13.490Z,89.34
2023-01-27T02:11:13.075Z,88.89
2023-01-27T02:12:13.087Z,88.78
2023-01-27T02:13:13.088Z,88.89
2023-01-27T02:14:13.064Z,88.99
2023-01-27T02:15:13.370Z,89.10
2023-01-27T02:16:13.044Z,88.57
2023-01-27T02:17:13.025Z,88.89
2023-01-27T02:18:13.045Z,88.89
2023-01-27T02:19:12.994Z,88.89
2023-01-27T02:20:12.995Z,88.89
2023-01-27T02:21:12.988Z,88.89
2023-01-27T02:22:12.983Z,88.89
2023-01-27T02:23:12.982Z,88.57
2023-01-27T02:24:12.984Z,88.06
2023-01-27T02:25:13.144Z,88.06
2023-01-27T02:26:12.924Z,87.95
2023-01-27T02:27:12.915Z,88.26
2023-01-27T02:28:12.918Z,88.68
2023-01-27T02:29:12.896Z,88.68
2023-01-27T02:30:12.911Z,88.57
2023-01-27T02:31:12.964Z,88.68
2023-01-27T02:32:12.866Z,88.68
2023-01-27T02:33:12.856Z,88.57
2023-01-27T02:34:12.846Z,88.68
2023-01-27T02:35:13.076Z,88.99
2023-01-27T02:36:12.840Z,89.10
2023-01-27T02:37:12.808Z,88.47
2023-01-27T02:38:12.831Z,88.16
2023-01-27T02:39:12.800Z,88.37
2023-01-27T02:40:12.795Z,88.37
2023-01-27T02:41:12.798Z,88.57
2023-01-27T02:42:12.808Z,88.57
2023-01-27T02:43:12.769Z,88.57
2023-01-27T02:44:12.771Z,88.68
2023-01-27T02:45:13.083Z,88.89
2023-01-27T02:46:12.807Z,89.20
2023-01-27T02:47:12.729Z,89.31
2023-01-27T02:48:12.720Z,88.99
2023-01-27T02:49:12.725Z,88.89
2023-01-27T02:50:12.697Z,88.99
2023-01-27T02:51:12.723Z,88.78
2023-01-27T02:52:12.702Z,88.68
2023-01-27T02:53:12.657Z,88.78
2023-01-27T02:54:12.652Z,88.78
2023-01-27T02:55:12.938Z,88.26
2023-01-27T02:56:12.648Z,88.57
2023-01-27T02:57:12.624Z,88.78
2023-01-27T02:58:12.629Z,88.89
2023-01-27T02:59:12.591Z,88.78
2023-01-27T03:00:12.615Z,88.78
2023-01-27T03:01:12.622Z,88.43
2023-01-27T03:02:12.619Z,88.43
2023-01-27T03:03:12.561Z,88.37
2023-01-27T03:04:12.558Z,88.37
2023-01-27T03:05:12.859Z,88.37
2023-01-27T03:06:12.561Z,88.47
2023-01-27T03:07:12.540Z,88.37
2023-01-27T03:08:12.522Z,88.16
2023-01-27T03:09:12.487Z,88.06
2023-01-27T03:10:12.492Z,88.16
2023-01-27T03:11:12.483Z,88.57
2023-01-27T03:12:12.457Z,88.68
2023-01-27T03:13:12.460Z,88.57
2023-01-27T03:14:12.450Z,88.68
2023-01-27T03:15:12.763Z,88.68
2023-01-27T03:16:14.540Z,88.64
2023-01-27T03:17:12.420Z,88.26
2023-01-27T03:18:12.427Z,88.26
2023-01-27T03:19:12.400Z,88.47
2023-01-27T03:20:12.430Z,88.57
2023-01-27T03:21:12.389Z,88.37
2023-01-27T03:22:12.370Z,88.68
2023-01-27T03:23:12.353Z,88.57
2023-01-27T03:24:12.365Z,88.68
2023-01-27T03:25:12.751Z,88.89
2023-01-27T03:26:12.348Z,88.89
2023-01-27T03:27:12.321Z,88.68
2023-01-27T03:28:12.302Z,88.89
2023-01-27T03:29:12.309Z,88.68
2023-01-27T03:30:12.272Z,88.37
2023-01-27T03:31:12.356Z,88.26
2023-01-27T03:32:12.296Z,88.37
2023-01-27T03:33:12.261Z,88.57
2023-01-27T03:34:12.230Z,88.78
2023-01-27T03:35:12.449Z,88.78
2023-01-27T03:36:12.218Z,88.75
2023-01-27T03:37:12.199Z,88.64
2023-01-27T03:38:12.198Z,88.64
2023-01-27T03:39:12.197Z,88.64
2023-01-27T03:40:12.182Z,88.53
2023-01-27T03:41:13.112Z,88.43
2023-01-27T03:42:12.163Z,88.53
2023-01-27T03:43:12.145Z,88.32
2023-01-27T03:44:12.153Z,88.22
2023-01-27T03:45:12.469Z,88.43
2023-01-27T03:46:13.091Z,88.43
2023-01-27T03:47:12.110Z,88.12
2023-01-27T03:48:12.093Z,88.22
2023-01-27T03:49:12.080Z,88.32
2023-01-27T03:50:12.088Z,88.43
2023-01-27T03:51:12.061Z,88.32
2023-01-27T03:52:12.057Z,88.32
2023-01-27T03:53:12.040Z,88.32
2023-01-27T03:54:12.050Z,88.43
2023-01-27T03:55:12.366Z,88.32
2023-01-27T03:56:12.012Z,88.43
2023-01-27T03:57:11.991Z,88.32
2023-01-27T03:58:11.990Z,88.01
2023-01-27T03:59:11.991Z,88.22
2023-01-27T04:00:11.970Z,88.43
2023-01-27T04:01:11.987Z,88.43
2023-01-27T04:02:11.950Z,88.64
2023-01-27T04:03:11.940Z,88.64
2023-01-27T04:04:11.942Z,88.26
2023-01-27T04:05:12.371Z,88.26
2023-01-27T04:06:11.913Z,88.26
2023-01-27T04:07:11.892Z,88.47
2023-01-27T04:08:11.892Z,88.26
2023-01-27T04:09:11.900Z,88.37
2023-01-27T04:10:11.895Z,88.68
2023-01-27T04:11:11.858Z,88.57
2023-01-27T04:12:11.842Z,88.57
2023-01-27T04:13:11.833Z,88.68
2023-01-27T04:14:11.841Z,88.57
2023-01-27T04:15:12.116Z,88.68
2023-01-27T04:16:11.829Z,88.89
2023-01-27T04:17:11.794Z,89.20
2023-01-27T04:18:11.805Z,89.10
2023-01-27T04:19:11.773Z,88.99
2023-01-27T04:20:11.785Z,88.89
2023-01-27T04:21:11.763Z,89.20
2023-01-27T04:22:11.753Z,88.99
2023-01-27T04:23:11.732Z,88.57
2023-01-27T04:24:11.756Z,88.57
2023-01-27T04:25:13.392Z,88.57
2023-01-27T04:26:11.728Z,88.68
2023-01-27T04:27:11.692Z,88.99
2023-01-27T04:28:11.690Z,88.99
2023-01-27T04:29:11.663Z,88.89
2023-01-27T04:30:11.663Z,88.68
2023-01-27T04:31:11.815Z,88.78
2023-01-27T04:32:11.662Z,88.99
2023-01-27T04:33:11.622Z,88.78
2023-01-27T04:34:11.621Z,88.78
2023-01-27T04:35:11.881Z,88.78
2023-01-27T04:36:11.592Z,88.99
2023-01-27T04:37:11.604Z,89.20
2023-01-27T04:38:12.879Z,88.99
2023-01-27T04:39:11.562Z,88.99
2023-01-27T04:40:11.562Z,88.78
2023-01-27T04:41:11.539Z,88.78
2023-01-27T04:42:11.542Z,88.89
2023-01-27T04:43:11.533Z,89.20
2023-01-27T04:44:11.523Z,89.41
2023-01-27T04:45:11.919Z,89.31
2023-01-27T04:46:11.492Z,89.41
2023-01-27T04:47:11.495Z,89.31
2023-01-27T04:48:11.473Z,89.20
2023-01-27T04:49:11.469Z,89.20
2023-01-27T04:50:11.461Z,88.99
2023-01-27T04:51:11.441Z,88.99
2023-01-27T04:52:11.443Z,88.78
2023-01-27T04:53:11.413Z,88.78
2023-01-27T04:54:11.415Z,88.89
2023-01-27T04:55:11.878Z,88.99
2023-01-27T04:56:11.400Z,88.89
2023-01-27T04:57:11.409Z,88.78
2023-01-27T04:58:11.373Z,88.89
2023-01-27T04:59:11.375Z,89.10
2023-01-27T05:00:11.351Z,89.20
2023-01-27T05:01:11.342Z,89.41
2023-01-27T05:02:11.377Z,89.41
2023-01-27T05:03:11.393Z,89.31
2023-01-27T05:04:11.329Z,89.31
2023-01-27T05:05:11.751Z,89.41
2023-01-27T05:06:11.293Z,89.41
2023-01-27T05:07:11.303Z,89.20
2023-01-27T05:08:11.273Z,89.31
2023-01-27T05:09:11.262Z,89.20
2023-01-27T05:10:11.252Z,89.10
2023-01-27T05:11:11.233Z,88.89
2023-01-27T05:12:11.283Z,88.89
2023-01-27T05:13:11.214Z,88.68
2023-01-27T05:14:11.207Z,88.68
2023-01-27T05:15:11.545Z,88.57
2023-01-27T05:16:11.278Z,88.47
2023-01-27T05:17:11.224Z,88.37
2023-01-27T05:18:11.173Z,88.16
2023-01-27T05:19:11.144Z,88.26
2023-01-27T05:20:11.147Z,88.37
2023-01-27T05:21:11.124Z,88.51
2023-01-27T05:22:11.139Z,88.93
2023-01-27T05:23:11.116Z,89.14
2023-01-27T05:24:11.147Z,89.34
2023-01-27T05:25:11.685Z,89.66
2023-01-27T05:26:11.083Z,90.08
2023-01-27T05:27:11.072Z,90.18
2023-01-27T05:28:11.068Z,89.76
2023-01-27T05:29:11.078Z,89.56
2023-01-27T05:30:11.045Z,89.56
2023-01-27T05:31:11.131Z,89.51
2023-01-27T05:32:11.025Z,89.72
2023-01-27T05:33:11.016Z,89.51
2023-01-27T05:34:11.018Z,89.62
2023-01-27T05:35:11.478Z,89.62
2023-01-27T05:36:10.981Z,89.72
2023-01-27T05:37:10.972Z,89.72
2023-01-27T05:38:10.965Z,89.62
2023-01-27T05:39:10.947Z,89.41
2023-01-27T05:40:10.964Z,89.31
2023-01-27T05:41:10.922Z,89.31
2023-01-27T05:42:10.922Z,89.41
2023-01-27T05:43:11.613Z,89.41
2023-01-27T05:44:10.925Z,88.99
2023-01-27T05:45:10.885Z,88.78
2023-01-27T05:46:10.901Z,88.68
2023-01-27T05:47:10.865Z,88.78
2023-01-27T05:48:10.858Z,88.68
2023-01-27T05:49:10.848Z,88.89
2023-01-27T05:50:10.858Z,88.78
2023-01-27T05:51:13.441Z,88.78
2023-01-27T05:52:10.835Z,88.89
2023-01-27T05:53:11.745Z,88.89
2023-01-27T05:54:10.807Z,88.89
2023-01-27T05:55:11.357Z,89.20
2023-01-27T05:56:10.780Z,89.31
2023-01-27T05:57:10.832Z,89.41
2023-01-27T05:58:10.754Z,89.62
2023-01-27T05:59:10.738Z,89.51
2023-01-27T06:00:10.767Z,89.31
2023-01-27T06:01:10.724Z,89.62
2023-01-27T06:02:10.735Z,89.83
2023-01-27T06:03:10.769Z,89.83
2023-01-27T06:04:10.706Z,89.72
2023-01-27T06:05:10.737Z,89.41
2023-01-27T06:06:10.675Z,89.51
2023-01-27T06:07:10.696Z,89.41
2023-01-27T06:08:11.775Z,89.41
2023-01-27T06:09:10.678Z,89.51
2023-01-27T06:10:11.328Z,89.31
2023-01-27T06:11:10.868Z,89.41
2023-01-27T06:12:10.634Z,89.62
2023-01-27T06:13:10.597Z,89.31
2023-01-27T06:14:10.609Z,89.31
2023-01-27T06:15:10.637Z,89.41
2023-01-27T06:16:10.709Z,89.51
2023-01-27T06:17:10.595Z,89.41
2023-01-27T06:18:11.248Z,89.51
2023-01-27T06:19:10.571Z,89.31
2023-01-27T06:20:10.611Z,89.31
2023-01-27T06:21:10.543Z,89.41
2023-01-27T06:22:11.565Z,89.83
2023-01-27T06:23:10.509Z,89.68
2023-01-27T06:24:13.427Z,89.41
2023-01-27T06:25:10.534Z,89.37
2023-01-27T06:26:11.168Z,89.58
2023-01-27T06:27:10.486Z,88.99
2023-01-27T06:28:17.141Z,89.16
2023-01-27T06:29:11.436Z,89.31
2023-01-27T06:30:10.467Z,89.62
2023-01-27T06:31:10.485Z,89.37
2023-01-27T06:32:10.520Z,89.16
2023-01-27T06:33:10.395Z,89.06
2023-01-27T06:34:10.381Z,89.06
2023-01-27T06:35:10.408Z,89.06
2023-01-27T06:36:10.367Z,88.85
2023-01-27T06:37:10.356Z,88.75
2023-01-27T06:38:12.342Z,88.53
2023-01-27T06:39:10.332Z,88.53
2023-01-27T06:40:10.329Z,88.53
2023-01-27T06:41:10.329Z,88.53
2023-01-27T06:42:10.311Z,88.43
2023-01-27T06:43:10.285Z,88.85
2023-01-27T06:44:10.276Z,89.37
2023-01-27T06:45:10.285Z,89.16
2023-01-27T06:46:10.328Z,88.95
2023-01-27T06:47:10.250Z,88.75
2023-01-27T06:48:10.228Z,88.32
2023-01-27T06:49:10.225Z,88.22
2023-01-27T06:50:10.225Z,88.22
2023-01-27T06:51:10.219Z,88.64
2023-01-27T06:52:10.198Z,88.85
2023-01-27T06:53:10.196Z,88.85
2023-01-27T06:54:10.186Z,89.06
2023-01-27T06:55:10.167Z,89.16
2023-01-27T06:56:10.168Z,89.06
2023-01-27T06:57:10.146Z,88.64
2023-01-27T06:58:10.134Z,88.75
2023-01-27T06:59:10.147Z,88.95
2023-01-27T07:00:10.110Z,88.95
2023-01-27T07:01:10.147Z,88.85
2023-01-27T07:02:10.088Z,88.95
2023-01-27T07:03:10.077Z,89.26
2023-01-27T07:04:10.078Z,89.37
2023-01-27T07:05:10.081Z,88.95
2023-01-27T07:06:10.064Z,88.64
2023-01-27T07:07:10.037Z,88.75
2023-01-27T07:08:10.027Z,88.64
2023-01-27T07:09:10.019Z,88.53
2023-01-27T07:10:10.006Z,88.75
2023-01-27T07:11:10.019Z,89.06
2023-01-27T07:12:09.987Z,89.26
2023-01-27T07:13:10.582Z,89.37
2023-01-27T07:14:10.703Z,89.06
2023-01-27T07:15:11.030Z,89.16
2023-01-27T07:16:10.019Z,89.26
2023-01-27T07:17:10.615Z,89.16
2023-01-27T07:18:09.936Z,89.16
2023-01-27T07:19:09.938Z,89.37
2023-01-27T07:20:09.913Z,89.37
2023-01-27T07:21:09.872Z,89.06
2023-01-27T07:22:09.861Z,89.26
2023-01-27T07:23:09.867Z,89.37
2023-01-27T07:24:09.930Z,88.95
2023-01-27T07:25:09.831Z,89.06
2023-01-27T07:26:23.186Z,89.26
2023-01-27T07:27:11.001Z,89.06
2023-01-27T07:28:09.802Z,88.43
2023-01-27T07:29:09.811Z,88.43
2023-01-27T07:30:09.771Z,88.43
2023-01-27T07:31:10.035Z,88.22
2023-01-27T07:32:09.763Z,88.12
2023-01-27T07:33:10.713Z,88.12
2023-01-27T07:34:09.736Z,88.43
2023-01-27T07:35:09.746Z,88.32
2023-01-27T07:36:09.727Z,88.53
2023-01-27T07:37:09.729Z,88.53
2023-01-27T07:38:09.693Z,88.39
2023-01-27T07:39:09.702Z,88.39
2023-01-27T07:40:09.673Z,88.49
2023-01-27T07:41:09.662Z,88.39
2023-01-27T07:42:09.643Z,88.18
2023-01-27T07:43:09.641Z,87.87
2023-01-27T07:44:09.643Z,87.97
2023-01-27T07:45:09.675Z,87.66
2023-01-27T07:46:09.713Z,87.66
2023-01-27T07:47:09.605Z,87.97
2023-01-27T07:48:09.601Z,88.08
2023-01-27T07:49:09.606Z,88.18
2023-01-27T07:50:09.576Z,87.87
2023-01-27T07:51:09.575Z,87.66
2023-01-27T07:52:09.564Z,87.55
2023-01-27T07:53:09.551Z,87.55
2023-01-27T07:54:09.550Z,87.35
2023-01-27T07:55:09.526Z,87.55
2023-01-27T07:56:09.505Z,87.45
2023-01-27T07:57:09.522Z,86.72
2023-01-27T07:58:09.485Z,86.41
2023-01-27T07:59:09.486Z,86.51
2023-01-27T08:00:09.473Z,86.61
2023-01-27T08:01:09.542Z,86.30
2023-01-27T08:02:09.473Z,86.30
2023-01-27T08:03:09.482Z,86.41
2023-01-27T08:04:09.423Z,86.61
2023-01-27T08:05:09.421Z,86.30
2023-01-27T08:06:09.403Z,86.41
2023-01-27T08:07:09.403Z,86.41
2023-01-27T08:08:09.387Z,86.61
2023-01-27T08:09:09.425Z,86.61
2023-01-27T08:10:09.406Z,86.72
2023-01-27T08:11:09.353Z,86.72
2023-01-27T08:12:09.352Z,86.51
2023-01-27T08:13:09.391Z,86.51
2023-01-27T08:14:10.054Z,86.72
2023-01-27T08:15:09.324Z,87.04
2023-01-27T08:16:10.044Z,86.93
2023-01-27T08:17:09.318Z,86.72
2023-01-27T08:18:10.388Z,87.04
2023-01-27T08:19:09.345Z,87.04
2023-01-27T08:20:09.967Z,87.04
2023-01-27T08:21:09.278Z,87.14
2023-01-27T08:22:10.268Z,86.72
2023-01-27T08:23:09.371Z,86.51
2023-01-27T08:24:09.976Z,86.41
2023-01-27T08:25:09.313Z,86.41
2023-01-27T08:26:09.917Z,86.41
2023-01-27T08:27:09.204Z,86.30
2023-01-27T08:28:09.935Z,86.41
2023-01-27T08:29:09.193Z,86.20
2023-01-27T08:30:09.879Z,86.20
2023-01-27T08:31:09.168Z,86.20
2023-01-27T08:32:10.120Z,85.99
2023-01-27T08:33:09.143Z,86.10
2023-01-27T08:34:10.587Z,85.89
2023-01-27T08:35:09.105Z,85.47
2023-01-27T08:36:10.077Z,85.36
2023-01-27T08:37:09.110Z,85.05
2023-01-27T08:38:10.060Z,84.84
2023-01-27T08:39:09.077Z,84.95
2023-01-27T08:40:09.076Z,84.95
2023-01-27T08:41:09.066Z,85.16
2023-01-27T08:42:09.744Z,84.64
2023-01-27T08:43:09.060Z,84.43
2023-01-27T08:44:09.723Z,84.53
2023-01-27T08:45:09.014Z,84.43
2023-01-27T08:46:09.721Z,84.33
2023-01-27T08:47:09.014Z,84.33
2023-01-27T08:48:09.931Z,84.74
2023-01-27T08:49:08.975Z,84.43
2023-01-27T08:50:08.954Z,84.12
2023-01-27T08:51:08.948Z,84.12
2023-01-27T08:52:10.386Z,83.80
2023-01-27T08:53:08.944Z,83.70
2023-01-27T08:54:09.619Z,83.80
2023-01-27T08:55:08.908Z,83.80
2023-01-27T08:56:08.904Z,83.49
2023-01-27T08:57:08.894Z,83.70
2023-01-27T08:58:09.074Z,84.01
2023-01-27T08:59:08.855Z,84.01
2023-01-27T09:00:09.294Z,84.22
2023-01-27T09:01:08.851Z,84.22
2023-01-27T09:02:08.995Z,84.01
2023-01-27T09:03:08.816Z,84.01
2023-01-27T09:04:08.806Z,83.80
2023-01-27T09:05:08.808Z,83.91
2023-01-27T09:06:08.785Z,83.70
2023-01-27T09:07:09.734Z,84.22
2023-01-27T09:08:08.766Z,84.12
2023-01-27T09:09:11.235Z,84.12
2023-01-27T09:10:14.485Z,84.43
2023-01-27T09:11:09.735Z,84.74
2023-01-27T09:12:08.727Z,84.95
2023-01-27T09:13:08.714Z,84.95
2023-01-27T09:14:08.729Z,84.84
2023-01-27T09:15:08.699Z,84.91
2023-01-27T09:16:08.730Z,84.91
2023-01-27T09:17:08.675Z,84.64
2023-01-27T09:18:08.716Z,84.08
2023-01-27T09:19:08.689Z,84.08
2023-01-27T09:20:08.645Z,84.18
2023-01-27T09:21:08.657Z,84.08
2023-01-27T09:22:08.629Z,84.08
2023-01-27T09:23:08.613Z,84.18
2023-01-27T09:24:08.628Z,84.18
2023-01-27T09:25:08.607Z,84.18
2023-01-27T09:26:08.577Z,84.08
2023-01-27T09:27:08.574Z,84.18
2023-01-27T09:28:08.556Z,84.28
2023-01-27T09:29:08.545Z,84.28
2023-01-27T09:30:08.546Z,84.39
2023-01-27T09:31:09.319Z,84.60
2023-01-27T09:32:08.591Z,84.60
2023-01-27T09:33:10.083Z,84.81
2023-01-27T09:34:08.505Z,84.70
2023-01-27T09:35:08.576Z,84.60
2023-01-27T09:36:08.496Z,84.60
2023-01-27T09:37:09.478Z,84.60
2023-01-27T09:38:08.457Z,84.39
2023-01-27T09:39:09.167Z,84.28
2023-01-27T09:40:08.446Z,84.18
2023-01-27T09:41:09.545Z,84.39
2023-01-27T09:42:08.466Z,84.50
2023-01-27T09:43:08.847Z,84.39
2023-01-27T09:44:08.406Z,84.28
2023-01-27T09:45:08.457Z,84.39
2023-01-27T09:46:08.551Z,84.50
2023-01-27T09:47:08.416Z,84.91
2023-01-27T09:48:08.358Z,84.50
2023-01-27T09:49:08.370Z,84.39
2023-01-27T09:50:08.326Z,84.25
2023-01-27T09:51:08.328Z,84.25
2023-01-27T09:52:08.339Z,83.94
2023-01-27T09:53:08.335Z,83.94
2023-01-27T09:54:08.320Z,83.94
2023-01-27T09:55:08.297Z,84.04
2023-01-27T09:56:08.296Z,84.25
2023-01-27T09:57:08.288Z,84.35
2023-01-27T09:58:08.300Z,83.83
2023-01-27T09:59:08.263Z,83.52
2023-01-27T10:00:08.226Z,83.52
2023-01-27T10:01:08.270Z,83.31
2023-01-27T10:02:08.236Z,83.31
2023-01-27T10:03:08.228Z,83.42
2023-01-27T10:04:08.207Z,83.48
2023-01-27T10:05:08.188Z,83.20
2023-01-27T10:06:08.192Z,83.06
2023-01-27T10:07:08.159Z,83.69
2023-01-27T10:08:08.157Z,83.48
2023-01-27T10:09:08.169Z,83.58
2023-01-27T10:10:08.136Z,83.37
2023-01-27T10:11:08.117Z,83.06
2023-01-27T10:12:08.144Z,83.06
2023-01-27T10:13:08.108Z,82.71
2023-01-27T10:14:08.076Z,82.54
2023-01-27T10:15:08.089Z,82.34
2023-01-27T10:16:08.083Z,82.61
2023-01-27T10:17:08.057Z,82.13
2023-01-27T10:18:08.039Z,82.13
2023-01-27T10:19:08.039Z,81.98
2023-01-27T10:20:08.024Z,82.09
2023-01-27T10:21:08.006Z,81.88
2023-01-27T10:22:08.019Z,82.20
2023-01-27T10:23:07.987Z,82.51
2023-01-27T10:24:07.988Z,81.88
2023-01-27T10:25:07.969Z,81.57
2023-01-27T10:26:07.947Z,81.15
2023-01-27T10:27:08.922Z,81.88
2023-01-27T10:28:07.927Z,81.98
2023-01-27T10:29:07.932Z,81.84
2023-01-27T10:30:07.919Z,81.22
2023-01-27T10:31:07.958Z,81.53
2023-01-27T10:32:07.923Z,81.22
2023-01-27T10:33:07.888Z,80.91
2023-01-27T10:34:07.875Z,80.70
2023-01-27T10:35:07.859Z,81.12
2023-01-27T10:36:07.853Z,81.22
2023-01-27T10:37:07.857Z,81.12
2023-01-27T10:38:07.860Z,80.49
2023-01-27T10:39:07.815Z,80.49
2023-01-27T10:40:07.833Z,80.29
2023-01-27T10:41:07.789Z,80.39
2023-01-27T10:42:07.798Z,81.01
2023-01-27T10:43:07.777Z,80.91
2023-01-27T10:44:07.930Z,80.56
2023-01-27T10:45:07.761Z,80.35
2023-01-27T10:46:07.927Z,80.15
2023-01-27T10:47:07.769Z,80.25
2023-01-27T10:48:08.421Z,80.25
2023-01-27T10:49:07.729Z,79.83
2023-01-27T10:50:08.757Z,79.62
2023-01-27T10:51:07.702Z,79.72
2023-01-27T10:52:08.399Z,79.62
2023-01-27T10:53:07.689Z,79.10
2023-01-27T10:54:08.400Z,79.41
2023-01-27T10:55:07.668Z,79.52
2023-01-27T10:56:07.899Z,79.83
2023-01-27T10:57:07.699Z,79.72
2023-01-27T10:58:08.341Z,79.83
2023-01-27T10:59:07.609Z,79.94
2023-01-27T11:00:41.850Z,80.25
2023-01-27T11:01:24.986Z,79.94
2023-01-27T11:02:08.745Z,80.15
2023-01-27T11:03:07.584Z,79.94
2023-01-27T11:04:07.652Z,79.83
2023-01-27T11:05:07.539Z,79.94
2023-01-27T11:06:07.535Z,80.04
2023-01-27T11:07:07.527Z,80.56
2023-01-27T11:08:07.543Z,80.25
2023-01-27T11:09:07.500Z,80.46
2023-01-27T11:10:07.545Z,80.35
2023-01-27T11:11:07.490Z,80.04
2023-01-27T11:12:07.529Z,80.15
2023-01-27T11:13:07.470Z,79.83
2023-01-27T11:14:07.451Z,80.46
2023-01-27T11:15:07.441Z,80.25
2023-01-27T11:16:07.465Z,80.35
2023-01-27T11:17:07.433Z,80.35
2023-01-27T11:18:07.425Z,80.87
2023-01-27T11:19:07.402Z,81.29
2023-01-27T11:20:07.437Z,80.87
2023-01-27T11:21:07.374Z,80.98
2023-01-27T11:22:08.974Z,80.15
2023-01-27T11:23:07.362Z,80.66
2023-01-27T11:24:07.366Z,80.98
2023-01-27T11:25:07.339Z,80.87
2023-01-27T11:26:07.384Z,80.87
2023-01-27T11:27:07.319Z,80.87
2023-01-27T11:28:07.320Z,80.35
2023-01-27T11:29:07.295Z,80.35
2023-01-27T11:30:07.309Z,80.56
2023-01-27T11:31:07.283Z,80.46
2023-01-27T11:32:07.334Z,80.04
2023-01-27T11:33:07.252Z,79.72
2023-01-27T11:34:07.251Z,80.35
2023-01-27T11:35:07.238Z,81.18
2023-01-27T11:36:07.232Z,81.04
2023-01-27T11:37:07.248Z,80.52
2023-01-27T11:38:15.345Z,79.90
2023-01-27T11:39:08.219Z,80.42
2023-01-27T11:40:07.181Z,81.25
2023-01-27T11:41:07.174Z,80.63
2023-01-27T11:42:07.163Z,79.48
2023-01-27T11:43:07.142Z,79.38
2023-01-27T11:44:07.147Z,79.58
2023-01-27T11:45:07.202Z,79.90
2023-01-27T11:46:07.172Z,79.83
2023-01-27T11:47:07.117Z,79.94
2023-01-27T11:48:07.096Z,80.56
2023-01-27T11:49:07.161Z,80.04
2023-01-27T11:50:07.069Z,80.35
2023-01-27T11:51:07.075Z,80.63
2023-01-27T11:52:07.051Z,80.42
2023-01-27T11:53:07.032Z,80.11
2023-01-27T11:54:07.022Z,80.21
2023-01-27T11:55:07.014Z,80.94
2023-01-27T11:56:07.031Z,80.52
2023-01-27T11:57:07.003Z,80.42
2023-01-27T11:58:06.985Z,80.42
2023-01-27T11:59:07.083Z,81.04
2023-01-27T12:00:06.972Z,80.98
2023-01-27T12:01:07.663Z,81.08
2023-01-27T12:02:06.954Z,81.15
2023-01-27T12:03:07.648Z,81.39
2023-01-27T12:04:07.008Z,81.35
2023-01-27T12:05:07.071Z,81.25
2023-01-27T12:06:06.994Z,80.94
2023-01-27T12:07:07.913Z,81.25
2023-01-27T12:08:06.909Z,80.63
2023-01-27T12:09:06.976Z,80.52
2023-01-27T12:10:06.893Z,80.73
2023-01-27T12:11:07.007Z,81.04
2023-01-27T12:12:06.844Z,80.42
2023-01-27T12:13:07.543Z,80.00
2023-01-27T12:14:06.822Z,80.32
2023-01-27T12:15:06.861Z,80.52
2023-01-27T12:16:06.837Z,80.94
2023-01-27T12:17:06.792Z,81.25
2023-01-27T12:18:06.785Z,81.15
2023-01-27T12:19:06.756Z,80.52
2023-01-27T12:20:06.765Z,80.52
2023-01-27T12:21:06.733Z,80.83
2023-01-27T12:22:06.724Z,80.42
2023-01-27T12:23:06.709Z,80.63
2023-01-27T12:24:06.747Z,80.63
2023-01-27T12:25:06.691Z,80.63
2023-01-27T12:26:06.684Z,80.83
2023-01-27T12:27:06.664Z,80.83
2023-01-27T12:28:06.671Z,81.01
2023-01-27T12:29:06.663Z,81.25
2023-01-27T12:30:06.655Z,80.59
2023-01-27T12:31:06.683Z,80.80
2023-01-27T12:32:06.678Z,80.59
2023-01-27T12:33:06.614Z,80.90
2023-01-27T12:34:06.610Z,80.69
2023-01-27T12:35:06.586Z,81.01
2023-01-27T12:36:06.574Z,81.01
2023-01-27T12:37:06.592Z,80.94
2023-01-27T12:38:06.555Z,80.63
2023-01-27T12:39:06.537Z,80.73
2023-01-27T12:40:06.544Z,80.63
2023-01-27T12:41:06.518Z,80.94
2023-01-27T12:42:06.530Z,81.25
2023-01-27T12:43:06.495Z,81.35
2023-01-27T12:44:06.505Z,81.35
2023-01-27T12:45:06.485Z,81.15
2023-01-27T12:46:06.476Z,81.04
2023-01-27T12:47:06.455Z,80.94
2023-01-27T12:48:06.445Z,80.63
2023-01-27T12:49:06.446Z,80.94
2023-01-27T12:50:06.444Z,81.25
2023-01-27T12:51:06.414Z,81.15
2023-01-27T12:52:06.406Z,81.25